sensor_id;sensor_type;location;lat;lon;timestamp;P1;durP1;ratioP1;P2;durP2;ratioP2
31978;SDS011;18502;43.574;1.276;2022-07-17T00:00:38;3.38;;;1.95;;
31978;SDS011;18502;43.574;1.276;2022-07-17T00:03:13;2.20;;;1.70;;
31978;SDS011;18502;43.574;1.276;2022-07-17T00:05:41;2.15;;;1.80;;
31978;SDS011;18502;43.574;1.276;2022-07-17T00:08:08;2.75;;;1.70;;
31978;SDS011;18502;43.574;1.276;2022-07-17T00:10:37;5.40;;;1.60;;
31978;SDS011;18502;43.574;1.276;2022-07-17T00:13:04;3.13;;;1.58;;
31978;SDS011;18502;43.574;1.276;2022-07-17T00:15:30;3.38;;;1.52;;
31978;SDS011;18502;43.574;1.276;2022-07-17T00:17:57;9.05;;;2.03;;
31978;SDS011;18502;43.574;1.276;2022-07-17T00:20:22;2.88;;;1.73;;
31978;SDS011;18502;43.574;1.276;2022-07-17T00:22:50;4.57;;;1.65;;
31978;SDS011;18502;43.574;1.276;2022-07-17T00:25:16;4.95;;;1.85;;
31978;SDS011;18502;43.574;1.276;2022-07-17T00:27:42;7.47;;;1.50;;
31978;SDS011;18502;43.574;1.276;2022-07-17T00:30:08;4.80;;;1.80;;
31978;SDS011;18502;43.574;1.276;2022-07-17T00:32:34;2.08;;;1.52;;
31978;SDS011;18502;43.574;1.276;2022-07-17T00:35:00;3.33;;;1.70;;
31978;SDS011;18502;43.574;1.276;2022-07-17T00:37:26;5.80;;;1.70;;
31978;SDS011;18502;43.574;1.276;2022-07-17T00:39:51;5.95;;;1.75;;
31978;SDS011;18502;43.574;1.276;2022-07-17T00:42:19;3.42;;;1.85;;
31978;SDS011;18502;43.574;1.276;2022-07-17T00:44:44;2.65;;;1.85;;
31978;SDS011;18502;43.574;1.276;2022-07-17T00:47:14;2.90;;;1.80;;
31978;SDS011;18502;43.574;1.276;2022-07-17T00:49:44;2.60;;;1.75;;
31978;SDS011;18502;43.574;1.276;2022-07-17T00:52:11;2.38;;;1.58;;
31978;SDS011;18502;43.574;1.276;2022-07-17T00:54:38;4.65;;;1.80;;
31978;SDS011;18502;43.574;1.276;2022-07-17T00:57:05;3.53;;;1.73;;
31978;SDS011;18502;43.574;1.276;2022-07-17T00:59:32;3.35;;;1.73;;
31978;SDS011;18502;43.574;1.276;2022-07-17T01:01:59;3.03;;;1.75;;
31978;SDS011;18502;43.574;1.276;2022-07-17T01:04:28;4.25;;;1.70;;
31978;SDS011;18502;43.574;1.276;2022-07-17T01:06:54;2.67;;;1.90;;
31978;SDS011;18502;43.574;1.276;2022-07-17T01:09:19;2.08;;;1.63;;
31978;SDS011;18502;43.574;1.276;2022-07-17T01:11:45;5.45;;;1.88;;
31978;SDS011;18502;43.574;1.276;2022-07-17T01:14:11;4.00;;;1.75;;
31978;SDS011;18502;43.574;1.276;2022-07-17T01:16:37;5.15;;;1.90;;
31978;SDS011;18502;43.574;1.276;2022-07-17T01:19:04;3.65;;;1.80;;
31978;SDS011;18502;43.574;1.276;2022-07-17T01:21:41;2.35;;;1.90;;
31978;SDS011;18502;43.574;1.276;2022-07-17T01:24:08;3.20;;;2.00;;
31978;SDS011;18502;43.574;1.276;2022-07-17T01:26:34;4.78;;;1.88;;
31978;SDS011;18502;43.574;1.276;2022-07-17T01:28:59;4.28;;;1.80;;
31978;SDS011;18502;43.574;1.276;2022-07-17T01:31:25;5.03;;;1.63;;
31978;SDS011;18502;43.574;1.276;2022-07-17T01:33:51;4.78;;;1.80;;
31978;SDS011;18502;43.574;1.276;2022-07-17T01:36:25;3.00;;;1.70;;
31978;SDS011;18502;43.574;1.276;2022-07-17T01:38:51;5.80;;;2.60;;
31978;SDS011;18502;43.574;1.276;2022-07-17T01:41:17;4.72;;;1.92;;
31978;SDS011;18502;43.574;1.276;2022-07-17T01:43:43;3.58;;;1.90;;
31978;SDS011;18502;43.574;1.276;2022-07-17T01:46:09;3.67;;;1.75;;
31978;SDS011;18502;43.574;1.276;2022-07-17T01:48:34;3.67;;;1.85;;
31978;SDS011;18502;43.574;1.276;2022-07-17T01:51:00;5.80;;;2.05;;
31978;SDS011;18502;43.574;1.276;2022-07-17T01:53:28;5.63;;;2.22;;
31978;SDS011;18502;43.574;1.276;2022-07-17T01:55:53;2.53;;;2.10;;
31978;SDS011;18502;43.574;1.276;2022-07-17T01:58:19;3.83;;;2.30;;
31978;SDS011;18502;43.574;1.276;2022-07-17T02:00:45;3.35;;;2.10;;
31978;SDS011;18502;43.574;1.276;2022-07-17T02:03:11;2.85;;;2.33;;
31978;SDS011;18502;43.574;1.276;2022-07-17T02:05:36;5.18;;;2.28;;
31978;SDS011;18502;43.574;1.276;2022-07-17T02:08:02;4.72;;;2.58;;
31978;SDS011;18502;43.574;1.276;2022-07-17T02:10:28;5.05;;;2.13;;
31978;SDS011;18502;43.574;1.276;2022-07-17T02:12:54;4.38;;;2.05;;
31978;SDS011;18502;43.574;1.276;2022-07-17T02:15:20;3.00;;;2.65;;
31978;SDS011;18502;43.574;1.276;2022-07-17T02:17:46;2.97;;;2.10;;
31978;SDS011;18502;43.574;1.276;2022-07-17T02:20:11;3.08;;;2.22;;
31978;SDS011;18502;43.574;1.276;2022-07-17T02:22:38;4.35;;;2.45;;
31978;SDS011;18502;43.574;1.276;2022-07-17T02:25:04;4.07;;;2.30;;
31978;SDS011;18502;43.574;1.276;2022-07-17T02:27:32;5.45;;;2.35;;
31978;SDS011;18502;43.574;1.276;2022-07-17T02:30:00;7.78;;;2.40;;
31978;SDS011;18502;43.574;1.276;2022-07-17T02:32:27;6.55;;;2.65;;
31978;SDS011;18502;43.574;1.276;2022-07-17T02:34:53;5.82;;;2.20;;
31978;SDS011;18502;43.574;1.276;2022-07-17T02:37:18;5.00;;;2.03;;
31978;SDS011;18502;43.574;1.276;2022-07-17T02:39:44;2.45;;;2.25;;
31978;SDS011;18502;43.574;1.276;2022-07-17T02:42:22;3.08;;;2.00;;
31978;SDS011;18502;43.574;1.276;2022-07-17T02:44:49;2.38;;;2.00;;
31978;SDS011;18502;43.574;1.276;2022-07-17T02:47:23;4.22;;;2.40;;
31978;SDS011;18502;43.574;1.276;2022-07-17T02:49:50;5.00;;;1.83;;
31978;SDS011;18502;43.574;1.276;2022-07-17T02:52:16;2.42;;;1.80;;
31978;SDS011;18502;43.574;1.276;2022-07-17T02:54:42;4.13;;;2.05;;
31978;SDS011;18502;43.574;1.276;2022-07-17T02:57:08;3.67;;;1.90;;
31978;SDS011;18502;43.574;1.276;2022-07-17T02:59:34;5.38;;;2.17;;
31978;SDS011;18502;43.574;1.276;2022-07-17T03:01:59;3.63;;;1.98;;
31978;SDS011;18502;43.574;1.276;2022-07-17T03:04:25;4.10;;;1.95;;
31978;SDS011;18502;43.574;1.276;2022-07-17T03:06:51;4.07;;;2.22;;
31978;SDS011;18502;43.574;1.276;2022-07-17T03:09:16;5.80;;;2.38;;
31978;SDS011;18502;43.574;1.276;2022-07-17T03:11:42;3.75;;;2.38;;
31978;SDS011;18502;43.574;1.276;2022-07-17T03:14:08;4.20;;;2.17;;
31978;SDS011;18502;43.574;1.276;2022-07-17T03:16:33;7.00;;;1.80;;
31978;SDS011;18502;43.574;1.276;2022-07-17T03:18:59;7.22;;;2.47;;
31978;SDS011;18502;43.574;1.276;2022-07-17T03:21:24;4.47;;;1.90;;
31978;SDS011;18502;43.574;1.276;2022-07-17T03:23:50;3.20;;;2.00;;
31978;SDS011;18502;43.574;1.276;2022-07-17T03:26:16;5.75;;;2.08;;
31978;SDS011;18502;43.574;1.276;2022-07-17T03:28:41;3.88;;;1.90;;
31978;SDS011;18502;43.574;1.276;2022-07-17T03:31:07;4.63;;;2.30;;
31978;SDS011;18502;43.574;1.276;2022-07-17T03:33:33;3.53;;;2.00;;
31978;SDS011;18502;43.574;1.276;2022-07-17T03:35:58;3.08;;;1.92;;
31978;SDS011;18502;43.574;1.276;2022-07-17T03:38:24;6.20;;;2.50;;
31978;SDS011;18502;43.574;1.276;2022-07-17T03:40:50;4.13;;;2.70;;
31978;SDS011;18502;43.574;1.276;2022-07-17T03:43:15;4.95;;;1.98;;
31978;SDS011;18502;43.574;1.276;2022-07-17T03:45:41;3.30;;;2.30;;
31978;SDS011;18502;43.574;1.276;2022-07-17T03:48:07;2.50;;;2.10;;
31978;SDS011;18502;43.574;1.276;2022-07-17T03:50:33;3.53;;;1.98;;
31978;SDS011;18502;43.574;1.276;2022-07-17T03:52:59;3.85;;;2.15;;
31978;SDS011;18502;43.574;1.276;2022-07-17T03:55:25;5.38;;;2.30;;
31978;SDS011;18502;43.574;1.276;2022-07-17T03:57:50;2.95;;;2.08;;
31978;SDS011;18502;43.574;1.276;2022-07-17T04:00:16;2.97;;;1.98;;
31978;SDS011;18502;43.574;1.276;2022-07-17T04:02:42;10.32;;;2.60;;
31978;SDS011;18502;43.574;1.276;2022-07-17T04:05:08;2.67;;;2.03;;
31978;SDS011;18502;43.574;1.276;2022-07-17T04:07:38;2.65;;;1.92;;
31978;SDS011;18502;43.574;1.276;2022-07-17T04:10:05;3.25;;;2.42;;
31978;SDS011;18502;43.574;1.276;2022-07-17T04:12:31;4.20;;;2.38;;
31978;SDS011;18502;43.574;1.276;2022-07-17T04:14:57;10.35;;;2.75;;
31978;SDS011;18502;43.574;1.276;2022-07-17T04:17:23;13.23;;;2.95;;
31978;SDS011;18502;43.574;1.276;2022-07-17T04:19:50;8.75;;;2.42;;
31978;SDS011;18502;43.574;1.276;2022-07-17T04:22:16;7.32;;;2.65;;
31978;SDS011;18502;43.574;1.276;2022-07-17T04:24:42;2.97;;;2.30;;
31978;SDS011;18502;43.574;1.276;2022-07-17T04:27:08;3.30;;;2.75;;
31978;SDS011;18502;43.574;1.276;2022-07-17T04:29:34;4.57;;;2.70;;
31978;SDS011;18502;43.574;1.276;2022-07-17T04:31:59;5.22;;;3.13;;
31978;SDS011;18502;43.574;1.276;2022-07-17T04:34:25;4.25;;;2.72;;
31978;SDS011;18502;43.574;1.276;2022-07-17T04:36:51;5.97;;;2.85;;
31978;SDS011;18502;43.574;1.276;2022-07-17T04:39:17;4.90;;;3.38;;
31978;SDS011;18502;43.574;1.276;2022-07-17T04:41:43;11.45;;;3.78;;
31978;SDS011;18502;43.574;1.276;2022-07-17T04:44:08;7.63;;;4.38;;
31978;SDS011;18502;43.574;1.276;2022-07-17T04:46:34;10.48;;;4.97;;
31978;SDS011;18502;43.574;1.276;2022-07-17T04:49:00;6.38;;;5.07;;
31978;SDS011;18502;43.574;1.276;2022-07-17T04:51:25;12.90;;;5.40;;
31978;SDS011;18502;43.574;1.276;2022-07-17T04:53:51;5.88;;;4.85;;
31978;SDS011;18502;43.574;1.276;2022-07-17T04:56:17;10.13;;;4.93;;
31978;SDS011;18502;43.574;1.276;2022-07-17T04:58:42;5.93;;;5.05;;
31978;SDS011;18502;43.574;1.276;2022-07-17T05:01:08;6.18;;;4.47;;
31978;SDS011;18502;43.574;1.276;2022-07-17T05:03:34;9.10;;;4.97;;
31978;SDS011;18502;43.574;1.276;2022-07-17T05:05:59;7.20;;;4.97;;
31978;SDS011;18502;43.574;1.276;2022-07-17T05:08:25;8.13;;;5.30;;
31978;SDS011;18502;43.574;1.276;2022-07-17T05:10:51;8.13;;;5.50;;
31978;SDS011;18502;43.574;1.276;2022-07-17T05:13:16;8.60;;;5.80;;
31978;SDS011;18502;43.574;1.276;2022-07-17T05:15:42;6.75;;;5.35;;
31978;SDS011;18502;43.574;1.276;2022-07-17T05:18:08;9.45;;;5.90;;
31978;SDS011;18502;43.574;1.276;2022-07-17T05:20:34;10.05;;;5.68;;
31978;SDS011;18502;43.574;1.276;2022-07-17T05:23:00;7.78;;;6.25;;
31978;SDS011;18502;43.574;1.276;2022-07-17T05:25:25;7.03;;;6.32;;
31978;SDS011;18502;43.574;1.276;2022-07-17T05:27:51;9.88;;;5.97;;
31978;SDS011;18502;43.574;1.276;2022-07-17T05:30:17;9.43;;;6.72;;
31978;SDS011;18502;43.574;1.276;2022-07-17T05:32:43;10.98;;;6.10;;
31978;SDS011;18502;43.574;1.276;2022-07-17T05:35:08;8.48;;;6.22;;
31978;SDS011;18502;43.574;1.276;2022-07-17T05:37:34;7.03;;;6.38;;
31978;SDS011;18502;43.574;1.276;2022-07-17T05:39:59;11.60;;;6.85;;
31978;SDS011;18502;43.574;1.276;2022-07-17T05:42:25;9.38;;;6.25;;
31978;SDS011;18502;43.574;1.276;2022-07-17T05:44:51;13.18;;;7.22;;
31978;SDS011;18502;43.574;1.276;2022-07-17T05:47:17;9.73;;;6.25;;
31978;SDS011;18502;43.574;1.276;2022-07-17T05:49:42;11.40;;;6.43;;
31978;SDS011;18502;43.574;1.276;2022-07-17T05:52:08;9.20;;;6.75;;
31978;SDS011;18502;43.574;1.276;2022-07-17T05:54:34;9.50;;;6.78;;
31978;SDS011;18502;43.574;1.276;2022-07-17T05:57:00;9.45;;;6.90;;
31978;SDS011;18502;43.574;1.276;2022-07-17T05:59:26;11.15;;;6.88;;
31978;SDS011;18502;43.574;1.276;2022-07-17T06:01:51;10.15;;;8.00;;
31978;SDS011;18502;43.574;1.276;2022-07-17T06:04:17;11.75;;;7.25;;
31978;SDS011;18502;43.574;1.276;2022-07-17T06:06:43;12.13;;;8.20;;
31978;SDS011;18502;43.574;1.276;2022-07-17T06:09:09;10.05;;;8.23;;
31978;SDS011;18502;43.574;1.276;2022-07-17T06:11:34;11.70;;;8.20;;
31978;SDS011;18502;43.574;1.276;2022-07-17T06:14:00;8.57;;;7.40;;
31978;SDS011;18502;43.574;1.276;2022-07-17T06:16:26;10.38;;;7.78;;
31978;SDS011;18502;43.574;1.276;2022-07-17T06:18:51;11.55;;;8.05;;
31978;SDS011;18502;43.574;1.276;2022-07-17T06:21:17;12.65;;;8.32;;
31978;SDS011;18502;43.574;1.276;2022-07-17T06:23:43;13.05;;;8.30;;
31978;SDS011;18502;43.574;1.276;2022-07-17T06:26:08;8.65;;;7.03;;
31978;SDS011;18502;43.574;1.276;2022-07-17T06:28:34;11.85;;;8.05;;
31978;SDS011;18502;43.574;1.276;2022-07-17T06:31:00;12.65;;;8.63;;
31978;SDS011;18502;43.574;1.276;2022-07-17T06:33:26;11.07;;;7.40;;
31978;SDS011;18502;43.574;1.276;2022-07-17T06:35:52;9.90;;;8.18;;
31978;SDS011;18502;43.574;1.276;2022-07-17T06:38:17;14.55;;;8.73;;
31978;SDS011;18502;43.574;1.276;2022-07-17T06:40:43;13.25;;;7.60;;
31978;SDS011;18502;43.574;1.276;2022-07-17T06:43:09;11.85;;;7.75;;
31978;SDS011;18502;43.574;1.276;2022-07-17T06:45:34;13.80;;;8.35;;
31978;SDS011;18502;43.574;1.276;2022-07-17T06:48:00;11.57;;;8.00;;
31978;SDS011;18502;43.574;1.276;2022-07-17T06:50:26;10.65;;;8.80;;
31978;SDS011;18502;43.574;1.276;2022-07-17T06:52:52;12.50;;;9.20;;
31978;SDS011;18502;43.574;1.276;2022-07-17T06:55:18;12.13;;;9.48;;
31978;SDS011;18502;43.574;1.276;2022-07-17T06:57:44;14.43;;;9.13;;
31978;SDS011;18502;43.574;1.276;2022-07-17T07:00:09;13.98;;;9.75;;
31978;SDS011;18502;43.574;1.276;2022-07-17T07:02:36;12.70;;;9.52;;
31978;SDS011;18502;43.574;1.276;2022-07-17T07:05:02;19.70;;;9.45;;
31978;SDS011;18502;43.574;1.276;2022-07-17T07:07:30;11.80;;;9.07;;
31978;SDS011;18502;43.574;1.276;2022-07-17T07:09:56;11.77;;;9.57;;
31978;SDS011;18502;43.574;1.276;2022-07-17T07:12:21;12.93;;;10.15;;
31978;SDS011;18502;43.574;1.276;2022-07-17T07:14:47;14.98;;;9.82;;
31978;SDS011;18502;43.574;1.276;2022-07-17T07:17:13;13.25;;;9.93;;
31978;SDS011;18502;43.574;1.276;2022-07-17T07:19:39;11.55;;;8.88;;
31978;SDS011;18502;43.574;1.276;2022-07-17T07:22:04;11.90;;;9.40;;
31978;SDS011;18502;43.574;1.276;2022-07-17T07:24:30;14.30;;;9.15;;
31978;SDS011;18502;43.574;1.276;2022-07-17T07:26:56;14.05;;;10.02;;
31978;SDS011;18502;43.574;1.276;2022-07-17T07:29:21;13.82;;;9.98;;
31978;SDS011;18502;43.574;1.276;2022-07-17T07:31:47;14.18;;;9.70;;
31978;SDS011;18502;43.574;1.276;2022-07-17T07:34:13;10.30;;;9.15;;
31978;SDS011;18502;43.574;1.276;2022-07-17T07:36:39;11.85;;;10.25;;
31978;SDS011;18502;43.574;1.276;2022-07-17T07:39:05;15.27;;;9.88;;
31978;SDS011;18502;43.574;1.276;2022-07-17T07:41:30;11.35;;;9.52;;
31978;SDS011;18502;43.574;1.276;2022-07-17T07:43:56;10.98;;;9.18;;
31978;SDS011;18502;43.574;1.276;2022-07-17T07:46:22;11.75;;;9.18;;
31978;SDS011;18502;43.574;1.276;2022-07-17T07:48:48;12.38;;;9.60;;
31978;SDS011;18502;43.574;1.276;2022-07-17T07:51:13;14.05;;;8.52;;
31978;SDS011;18502;43.574;1.276;2022-07-17T07:53:39;13.52;;;8.95;;
31978;SDS011;18502;43.574;1.276;2022-07-17T07:56:05;11.57;;;7.65;;
31978;SDS011;18502;43.574;1.276;2022-07-17T07:58:30;9.02;;;7.25;;
31978;SDS011;18502;43.574;1.276;2022-07-17T08:00:56;9.10;;;7.35;;
31978;SDS011;18502;43.574;1.276;2022-07-17T08:03:22;9.80;;;7.22;;
31978;SDS011;18502;43.574;1.276;2022-07-17T08:05:47;9.98;;;7.95;;
31978;SDS011;18502;43.574;1.276;2022-07-17T08:08:13;8.93;;;7.35;;
31978;SDS011;18502;43.574;1.276;2022-07-17T08:10:39;8.32;;;7.50;;
31978;SDS011;18502;43.574;1.276;2022-07-17T08:13:04;10.88;;;6.95;;
31978;SDS011;18502;43.574;1.276;2022-07-17T08:15:30;8.27;;;7.45;;
31978;SDS011;18502;43.574;1.276;2022-07-17T08:17:56;11.05;;;7.05;;
31978;SDS011;18502;43.574;1.276;2022-07-17T08:20:22;9.85;;;6.38;;
31978;SDS011;18502;43.574;1.276;2022-07-17T08:22:48;8.50;;;7.13;;
31978;SDS011;18502;43.574;1.276;2022-07-17T08:25:15;6.57;;;5.97;;
31978;SDS011;18502;43.574;1.276;2022-07-17T08:27:41;6.75;;;6.05;;
31978;SDS011;18502;43.574;1.276;2022-07-17T08:30:08;9.23;;;6.38;;
31978;SDS011;18502;43.574;1.276;2022-07-17T08:32:36;6.50;;;5.90;;
31978;SDS011;18502;43.574;1.276;2022-07-17T08:35:02;7.72;;;5.93;;
31978;SDS011;18502;43.574;1.276;2022-07-17T08:37:28;8.77;;;5.68;;
31978;SDS011;18502;43.574;1.276;2022-07-17T08:39:55;7.75;;;5.80;;
31978;SDS011;18502;43.574;1.276;2022-07-17T08:42:21;6.97;;;5.57;;
31978;SDS011;18502;43.574;1.276;2022-07-17T08:44:47;5.78;;;5.15;;
31978;SDS011;18502;43.574;1.276;2022-07-17T08:47:14;6.43;;;5.28;;
31978;SDS011;18502;43.574;1.276;2022-07-17T08:49:44;7.72;;;5.95;;
31978;SDS011;18502;43.574;1.276;2022-07-17T08:52:11;8.75;;;5.13;;
31978;SDS011;18502;43.574;1.276;2022-07-17T08:54:37;5.85;;;5.25;;
31978;SDS011;18502;43.574;1.276;2022-07-17T08:57:04;6.95;;;5.97;;
31978;SDS011;18502;43.574;1.276;2022-07-17T08:59:30;6.45;;;5.85;;
31978;SDS011;18502;43.574;1.276;2022-07-17T09:01:56;5.53;;;5.05;;
31978;SDS011;18502;43.574;1.276;2022-07-17T09:04:23;7.80;;;5.85;;
31978;SDS011;18502;43.574;1.276;2022-07-17T09:06:59;6.00;;;5.32;;
31978;SDS011;18502;43.574;1.276;2022-07-17T09:09:29;6.82;;;5.43;;
31978;SDS011;18502;43.574;1.276;2022-07-17T09:11:56;5.53;;;4.97;;
31978;SDS011;18502;43.574;1.276;2022-07-17T09:14:23;7.47;;;5.50;;
31978;SDS011;18502;43.574;1.276;2022-07-17T09:17:00;7.97;;;5.50;;
31978;SDS011;18502;43.574;1.276;2022-07-17T09:19:29;10.95;;;5.40;;
31978;SDS011;18502;43.574;1.276;2022-07-17T09:27:40;9.23;;;5.20;;
31978;SDS011;18502;43.574;1.276;2022-07-17T09:30:07;5.30;;;4.78;;
31978;SDS011;18502;43.574;1.276;2022-07-17T09:32:37;8.10;;;4.97;;
31978;SDS011;18502;43.574;1.276;2022-07-17T09:35:06;4.97;;;4.47;;
31978;SDS011;18502;43.574;1.276;2022-07-17T09:37:34;5.38;;;4.88;;
31978;SDS011;18502;43.574;1.276;2022-07-17T09:40:01;9.15;;;4.85;;
31978;SDS011;18502;43.574;1.276;2022-07-17T09:42:33;6.90;;;4.20;;
31978;SDS011;18502;43.574;1.276;2022-07-17T09:45:06;5.53;;;4.70;;
31978;SDS011;18502;43.574;1.276;2022-07-17T09:47:34;6.65;;;4.55;;
31978;SDS011;18502;43.574;1.276;2022-07-17T09:50:05;9.10;;;4.70;;
31978;SDS011;18502;43.574;1.276;2022-07-17T09:52:35;4.97;;;4.47;;
31978;SDS011;18502;43.574;1.276;2022-07-17T09:55:03;5.25;;;4.40;;
31978;SDS011;18502;43.574;1.276;2022-07-17T09:57:30;8.20;;;4.90;;
31978;SDS011;18502;43.574;1.276;2022-07-17T09:59:58;7.10;;;4.78;;
31978;SDS011;18502;43.574;1.276;2022-07-17T10:02:26;4.72;;;4.07;;
31978;SDS011;18502;43.574;1.276;2022-07-17T10:04:52;7.90;;;4.78;;
31978;SDS011;18502;43.574;1.276;2022-07-17T10:07:18;6.20;;;3.80;;
31978;SDS011;18502;43.574;1.276;2022-07-17T10:09:45;9.93;;;4.53;;
31978;SDS011;18502;43.574;1.276;2022-07-17T10:12:11;4.65;;;4.20;;
31978;SDS011;18502;43.574;1.276;2022-07-17T10:14:38;6.50;;;4.32;;
31978;SDS011;18502;43.574;1.276;2022-07-17T10:17:09;4.63;;;4.05;;
31978;SDS011;18502;43.574;1.276;2022-07-17T10:22:42;3.85;;;3.22;;
31978;SDS011;18502;43.574;1.276;2022-07-17T10:25:12;6.13;;;3.58;;
31978;SDS011;18502;43.574;1.276;2022-07-17T10:27:45;6.20;;;3.70;;
31978;SDS011;18502;43.574;1.276;2022-07-17T10:30:19;4.63;;;3.45;;
31978;SDS011;18502;43.574;1.276;2022-07-17T10:32:55;5.68;;;3.47;;
31978;SDS011;18502;43.574;1.276;2022-07-17T10:35:23;7.20;;;3.55;;
31978;SDS011;18502;43.574;1.276;2022-07-17T10:37:50;4.28;;;3.50;;
31978;SDS011;18502;43.574;1.276;2022-07-17T10:47:59;3.70;;;3.30;;
31978;SDS011;18502;43.574;1.276;2022-07-17T10:50:29;3.67;;;3.35;;
31978;SDS011;18502;43.574;1.276;2022-07-17T10:58:27;7.55;;;3.10;;
31978;SDS011;18502;43.574;1.276;2022-07-17T11:01:16;5.97;;;2.90;;
31978;SDS011;18502;43.574;1.276;2022-07-17T11:03:43;4.28;;;2.85;;
31978;SDS011;18502;43.574;1.276;2022-07-17T11:06:15;3.47;;;3.13;;
31978;SDS011;18502;43.574;1.276;2022-07-17T11:08:42;4.60;;;3.03;;
31978;SDS011;18502;43.574;1.276;2022-07-17T11:11:08;4.25;;;3.03;;
31978;SDS011;18502;43.574;1.276;2022-07-17T11:13:34;4.57;;;3.30;;
31978;SDS011;18502;43.574;1.276;2022-07-17T11:16:00;4.47;;;2.85;;
31978;SDS011;18502;43.574;1.276;2022-07-17T11:18:25;3.10;;;2.80;;
31978;SDS011;18502;43.574;1.276;2022-07-17T11:20:53;5.13;;;2.90;;
31978;SDS011;18502;43.574;1.276;2022-07-17T11:28:27;3.83;;;2.50;;
31978;SDS011;18502;43.574;1.276;2022-07-17T11:30:53;3.15;;;2.92;;
31978;SDS011;18502;43.574;1.276;2022-07-17T11:33:19;3.35;;;2.75;;
31978;SDS011;18502;43.574;1.276;2022-07-17T11:35:48;3.50;;;3.20;;
31978;SDS011;18502;43.574;1.276;2022-07-17T11:38:14;6.25;;;3.05;;
31978;SDS011;18502;43.574;1.276;2022-07-17T11:40:49;3.35;;;2.58;;
31978;SDS011;18502;43.574;1.276;2022-07-17T11:43:15;5.65;;;2.53;;
31978;SDS011;18502;43.574;1.276;2022-07-17T11:45:43;3.40;;;2.38;;
31978;SDS011;18502;43.574;1.276;2022-07-17T11:48:09;3.93;;;3.00;;
31978;SDS011;18502;43.574;1.276;2022-07-17T11:50:35;3.40;;;2.65;;
31978;SDS011;18502;43.574;1.276;2022-07-17T11:53:02;2.95;;;2.70;;
31978;SDS011;18502;43.574;1.276;2022-07-17T11:55:36;4.80;;;2.38;;
31978;SDS011;18502;43.574;1.276;2022-07-17T11:58:05;2.70;;;2.50;;
31978;SDS011;18502;43.574;1.276;2022-07-17T12:00:32;2.70;;;2.50;;
31978;SDS011;18502;43.574;1.276;2022-07-17T12:02:59;3.85;;;2.28;;
31978;SDS011;18502;43.574;1.276;2022-07-17T12:05:28;3.28;;;2.60;;
31978;SDS011;18502;43.574;1.276;2022-07-17T12:07:55;2.45;;;2.08;;
31978;SDS011;18502;43.574;1.276;2022-07-17T12:10:22;3.40;;;2.45;;
31978;SDS011;18502;43.574;1.276;2022-07-17T12:15:36;3.95;;;1.90;;
31978;SDS011;18502;43.574;1.276;2022-07-17T12:18:07;2.28;;;1.77;;
31978;SDS011;18502;43.574;1.276;2022-07-17T12:20:47;3.22;;;2.00;;
31978;SDS011;18502;43.574;1.276;2022-07-17T12:26:11;2.17;;;1.92;;
31978;SDS011;18502;43.574;1.276;2022-07-17T12:28:40;2.72;;;1.83;;
31978;SDS011;18502;43.574;1.276;2022-07-17T12:31:10;2.72;;;1.90;;
31978;SDS011;18502;43.574;1.276;2022-07-17T12:33:37;3.70;;;1.83;;
31978;SDS011;18502;43.574;1.276;2022-07-17T12:36:03;4.03;;;2.05;;
31978;SDS011;18502;43.574;1.276;2022-07-17T12:38:29;2.30;;;2.10;;
31978;SDS011;18502;43.574;1.276;2022-07-17T12:40:55;2.20;;;2.00;;
31978;SDS011;18502;43.574;1.276;2022-07-17T12:43:21;2.30;;;1.88;;
31978;SDS011;18502;43.574;1.276;2022-07-17T12:45:48;3.85;;;1.80;;
31978;SDS011;18502;43.574;1.276;2022-07-17T12:48:14;3.88;;;2.05;;
31978;SDS011;18502;43.574;1.276;2022-07-17T12:50:40;2.42;;;2.22;;
31978;SDS011;18502;43.574;1.276;2022-07-17T12:53:05;4.93;;;2.40;;
31978;SDS011;18502;43.574;1.276;2022-07-17T12:55:32;1.90;;;1.65;;
31978;SDS011;18502;43.574;1.276;2022-07-17T12:57:58;2.45;;;1.83;;
31978;SDS011;18502;43.574;1.276;2022-07-17T13:00:24;2.00;;;1.90;;
31978;SDS011;18502;43.574;1.276;2022-07-17T13:02:50;3.42;;;1.80;;
31978;SDS011;18502;43.574;1.276;2022-07-17T13:05:15;2.28;;;1.88;;
31978;SDS011;18502;43.574;1.276;2022-07-17T13:07:41;1.52;;;1.42;;
31978;SDS011;18502;43.574;1.276;2022-07-17T13:10:07;2.28;;;2.03;;
31978;SDS011;18502;43.574;1.276;2022-07-17T13:12:34;1.98;;;1.88;;
31978;SDS011;18502;43.574;1.276;2022-07-17T13:15:01;1.80;;;1.70;;
31978;SDS011;18502;43.574;1.276;2022-07-17T13:17:27;1.58;;;1.40;;
31978;SDS011;18502;43.574;1.276;2022-07-17T13:19:54;1.98;;;1.38;;
31978;SDS011;18502;43.574;1.276;2022-07-17T13:22:20;2.35;;;1.25;;
31978;SDS011;18502;43.574;1.276;2022-07-17T13:24:45;1.40;;;1.30;;
31978;SDS011;18502;43.574;1.276;2022-07-17T13:27:11;3.58;;;1.45;;
31978;SDS011;18502;43.574;1.276;2022-07-17T13:29:37;1.38;;;1.30;;
31978;SDS011;18502;43.574;1.276;2022-07-17T13:32:03;2.58;;;1.23;;
31978;SDS011;18502;43.574;1.276;2022-07-17T13:34:29;1.55;;;1.30;;
31978;SDS011;18502;43.574;1.276;2022-07-17T13:36:55;1.60;;;1.27;;
31978;SDS011;18502;43.574;1.276;2022-07-17T13:39:21;1.92;;;1.30;;
31978;SDS011;18502;43.574;1.276;2022-07-17T13:41:46;1.35;;;1.35;;
31978;SDS011;18502;43.574;1.276;2022-07-17T13:44:12;1.42;;;1.35;;
31978;SDS011;18502;43.574;1.276;2022-07-17T13:46:38;2.28;;;1.27;;
31978;SDS011;18502;43.574;1.276;2022-07-17T13:49:04;1.60;;;1.50;;
31978;SDS011;18502;43.574;1.276;2022-07-17T13:51:30;3.08;;;1.50;;
31978;SDS011;18502;43.574;1.276;2022-07-17T13:53:59;1.48;;;1.20;;
31978;SDS011;18502;43.574;1.276;2022-07-17T13:56:25;1.48;;;1.38;;
31978;SDS011;18502;43.574;1.276;2022-07-17T13:58:51;1.27;;;1.20;;
31978;SDS011;18502;43.574;1.276;2022-07-17T14:01:17;1.88;;;1.25;;
31978;SDS011;18502;43.574;1.276;2022-07-17T14:03:43;1.42;;;1.33;;
31978;SDS011;18502;43.574;1.276;2022-07-17T14:06:08;1.40;;;1.30;;
31978;SDS011;18502;43.574;1.276;2022-07-17T14:08:34;3.40;;;1.33;;
31978;SDS011;18502;43.574;1.276;2022-07-17T14:11:00;1.27;;;1.25;;
31978;SDS011;18502;43.574;1.276;2022-07-17T14:13:26;1.17;;;1.17;;
31978;SDS011;18502;43.574;1.276;2022-07-17T14:15:52;1.52;;;1.42;;
31978;SDS011;18502;43.574;1.276;2022-07-17T14:18:18;2.65;;;1.23;;
31978;SDS011;18502;43.574;1.276;2022-07-17T14:20:44;1.60;;;1.50;;
31978;SDS011;18502;43.574;1.276;2022-07-17T14:23:10;3.22;;;1.60;;
31978;SDS011;18502;43.574;1.276;2022-07-17T14:25:36;1.80;;;1.67;;
31978;SDS011;18502;43.574;1.276;2022-07-17T14:28:02;2.35;;;1.40;;
31978;SDS011;18502;43.574;1.276;2022-07-17T14:30:28;1.50;;;1.48;;
31978;SDS011;18502;43.574;1.276;2022-07-17T14:32:54;2.22;;;1.55;;
31978;SDS011;18502;43.574;1.276;2022-07-17T14:35:19;1.23;;;1.23;;
31978;SDS011;18502;43.574;1.276;2022-07-17T14:37:45;1.73;;;1.50;;
31978;SDS011;18502;43.574;1.276;2022-07-17T14:40:12;2.20;;;1.42;;
31978;SDS011;18502;43.574;1.276;2022-07-17T14:42:38;1.50;;;1.30;;
31978;SDS011;18502;43.574;1.276;2022-07-17T14:45:04;3.17;;;1.58;;
31978;SDS011;18502;43.574;1.276;2022-07-17T14:47:31;4.05;;;1.48;;
31978;SDS011;18502;43.574;1.276;2022-07-17T14:49:56;1.40;;;1.40;;
31978;SDS011;18502;43.574;1.276;2022-07-17T14:52:22;1.50;;;1.40;;
31978;SDS011;18502;43.574;1.276;2022-07-17T14:54:48;2.05;;;1.33;;
31978;SDS011;18502;43.574;1.276;2022-07-17T14:57:13;2.22;;;1.35;;
31978;SDS011;18502;43.574;1.276;2022-07-17T14:59:39;1.60;;;1.50;;
31978;SDS011;18502;43.574;1.276;2022-07-17T15:02:05;1.33;;;1.33;;
31978;SDS011;18502;43.574;1.276;2022-07-17T15:04:31;1.63;;;1.38;;
31978;SDS011;18502;43.574;1.276;2022-07-17T15:06:57;1.73;;;1.55;;
31978;SDS011;18502;43.574;1.276;2022-07-17T15:09:22;2.25;;;1.17;;
31978;SDS011;18502;43.574;1.276;2022-07-17T15:11:48;1.73;;;1.45;;
31978;SDS011;18502;43.574;1.276;2022-07-17T15:14:14;1.63;;;1.52;;